createdAt,value
2023-02-28T00:01:21.916Z,2.28
2023-02-28T00:03:50.787Z,4.03
2023-02-28T00:06:17.731Z,3.20
2023-02-28T00:08:44.672Z,3.67
2023-02-28T00:11:13.896Z,4.97
2023-02-28T00:13:47.189Z,3.53
2023-02-28T00:16:17.326Z,3.22
2023-02-28T00:18:44.350Z,2.83
2023-02-28T00:21:11.154Z,4.03
2023-02-28T00:23:38.378Z,4.05
2023-02-28T00:26:05.817Z,3.28
2023-02-28T00:28:32.886Z,5.43
2023-02-28T00:31:00.989Z,6.10
2023-02-28T00:33:29.205Z,3.58
2023-02-28T00:36:12.907Z,3.85
2023-02-28T00:38:41.088Z,4.32
2023-02-28T00:41:08.676Z,3.50
2023-02-28T00:43:37.641Z,5.93
2023-02-28T00:46:04.950Z,4.18
2023-02-28T00:48:32.272Z,4.05
2023-02-28T00:50:59.188Z,3.72
2023-02-28T00:53:26.230Z,3.42
2023-02-28T00:55:53.424Z,3.67
2023-02-28T00:58:20.370Z,2.87
2023-02-28T01:00:50.474Z,3.08
2023-02-28T01:03:18.559Z,4.90
2023-02-28T01:05:45.975Z,2.63
2023-02-28T01:08:14.574Z,4.40
2023-02-28T01:10:41.828Z,6.63
2023-02-28T01:13:08.872Z,3.95
2023-02-28T01:15:38.037Z,3.70
2023-02-28T01:18:05.497Z,4.10
2023-02-28T01:20:32.384Z,4.95
2023-02-28T01:22:59.163Z,4.50
2023-02-28T01:25:26.005Z,4.25
2023-02-28T01:27:53.115Z,3.63
2023-02-28T01:30:20.164Z,4.87
2023-02-28T01:32:47.747Z,5.13
2023-02-28T01:35:14.689Z,5.45
2023-02-28T01:37:41.566Z,5.22
2023-02-28T01:40:09.137Z,6.32
2023-02-28T01:42:35.922Z,4.63
2023-02-28T01:45:21.597Z,6.17
2023-02-28T01:47:51.953Z,4.85
2023-02-28T01:50:25.883Z,4.57
2023-02-28T01:52:54.607Z,6.28
2023-02-28T01:55:23.481Z,6.28
2023-02-28T01:57:55.759Z,4.72
2023-02-28T02:00:25.302Z,5.05
2023-02-28T02:02:56.560Z,5.93
2023-02-28T02:05:25.930Z,6.18
2023-02-28T02:07:56.822Z,5.80
2023-02-28T02:10:35.782Z,5.30
2023-02-28T02:13:24.412Z,7.00
2023-02-28T02:16:24.064Z,6.93
2023-02-28T02:18:58.507Z,4.72
2023-02-28T02:21:43.833Z,7.05
2023-02-28T02:24:48.968Z,7.68
2023-02-28T02:27:46.637Z,5.60
2023-02-28T02:33:05.420Z,5.20
2023-02-28T02:35:42.049Z,7.60
2023-02-28T02:38:50.674Z,7.47
2023-02-28T02:41:40.724Z,6.47
2023-02-28T02:44:12.569Z,6.75
2023-02-28T02:46:45.415Z,5.65
2023-02-28T02:49:23.031Z,4.93
2023-02-28T02:51:52.040Z,7.95
2023-02-28T02:54:23.963Z,6.90
2023-02-28T02:56:52.603Z,7.53
2023-02-28T02:59:22.823Z,6.25
2023-02-28T03:01:58.094Z,7.90
2023-02-28T03:04:28.129Z,7.28
2023-02-28T03:06:55.743Z,6.43
2023-02-28T03:09:24.001Z,7.18
2023-02-28T03:11:53.300Z,8.38
2023-02-28T03:14:47.121Z,7.80
2023-02-28T03:17:13.937Z,6.68
2023-02-28T03:19:56.951Z,6.82
2023-02-28T03:22:53.192Z,6.60
2023-02-28T03:25:44.707Z,8.05
2023-02-28T03:28:40.861Z,6.03
2023-02-28T03:31:13.565Z,8.23
2023-02-28T03:33:46.295Z,9.07
2023-02-28T03:36:20.884Z,7.70
2023-02-28T03:39:03.659Z,8.10
2023-02-28T03:41:48.710Z,8.30
2023-02-28T03:44:20.904Z,10.85
2023-02-28T03:47:13.217Z,7.97
2023-02-28T03:50:02.463Z,8.50
2023-02-28T03:52:35.077Z,10.75
2023-02-28T03:55:08.107Z,9.38
2023-02-28T03:58:02.587Z,10.63
2023-02-28T04:00:35.331Z,8.90
2023-02-28T04:03:02.673Z,11.02
2023-02-28T04:05:31.105Z,9.60
2023-02-28T04:08:08.528Z,9.80
2023-02-28T04:10:35.548Z,8.98
2023-02-28T04:13:02.404Z,10.33
2023-02-28T04:15:29.251Z,10.55
2023-02-28T04:17:56.068Z,9.77
2023-02-28T04:20:22.925Z,10.15
2023-02-28T04:22:49.822Z,12.00
2023-02-28T04:25:16.728Z,9.83
2023-02-28T04:27:45.463Z,10.00
2023-02-28T04:30:13.114Z,11.65
2023-02-28T04:32:40.258Z,11.68
2023-02-28T04:35:07.606Z,12.38
2023-02-28T04:37:35.730Z,10.52
2023-02-28T04:40:03.699Z,14.70
2023-02-28T04:45:04.329Z,13.45
2023-02-28T04:49:58.089Z,11.10
2023-02-28T04:52:25.252Z,13.45
2023-02-28T04:54:52.068Z,9.32
2023-02-28T04:57:18.873Z,9.50
2023-02-28T04:59:45.772Z,10.60
2023-02-28T05:02:12.920Z,12.47
2023-02-28T05:04:39.862Z,10.88
2023-02-28T05:07:06.878Z,14.67
2023-02-28T05:09:36.643Z,11.53
2023-02-28T05:12:04.260Z,13.07
2023-02-28T05:14:31.336Z,12.63
2023-02-28T05:16:58.254Z,11.68
2023-02-28T05:19:25.087Z,12.68
2023-02-28T05:21:54.427Z,16.30
2023-02-28T05:24:24.436Z,11.77
2023-02-28T05:26:53.925Z,11.88
2023-02-28T05:29:23.490Z,11.10
2023-02-28T05:31:50.405Z,11.15
2023-02-28T05:34:17.478Z,8.27
2023-02-28T05:36:44.396Z,10.18
2023-02-28T05:39:13.566Z,8.52
2023-02-28T05:41:42.307Z,10.85
2023-02-28T05:44:09.324Z,13.38
2023-02-28T05:46:36.499Z,9.93
2023-02-28T05:49:04.171Z,11.45
2023-02-28T05:51:31.401Z,10.00
2023-02-28T05:54:02.411Z,12.23
2023-02-28T05:56:30.366Z,12.13
2023-02-28T05:59:01.305Z,13.02
2023-02-28T06:01:34.187Z,14.07
2023-02-28T06:04:02.284Z,10.00
2023-02-28T06:06:30.575Z,14.40
2023-02-28T06:08:57.997Z,10.48
2023-02-28T06:11:28.488Z,12.23
2023-02-28T06:13:57.627Z,10.63
2023-02-28T06:16:25.677Z,10.45
2023-02-28T06:18:53.679Z,12.23
2023-02-28T06:23:47.259Z,10.63
2023-02-28T06:26:14.246Z,13.53
2023-02-28T06:28:41.798Z,12.17
2023-02-28T06:31:14.227Z,13.77
2023-02-28T06:33:41.938Z,11.10
2023-02-28T06:36:09.268Z,13.98
2023-02-28T06:38:37.119Z,12.95
2023-02-28T06:41:04.796Z,10.82
2023-02-28T06:43:36.323Z,14.20
2023-02-28T06:46:06.719Z,11.73
2023-02-28T06:48:35.881Z,14.63
2023-02-28T06:51:12.039Z,14.65
2023-02-28T06:53:39.516Z,14.70
2023-02-28T06:56:11.738Z,16.90
2023-02-28T06:58:39.918Z,14.10
2023-02-28T07:01:07.805Z,10.32
2023-02-28T07:06:03.690Z,10.95
2023-02-28T07:08:30.565Z,15.23
2023-02-28T07:10:57.666Z,13.35
2023-02-28T07:13:24.994Z,14.80
2023-02-28T07:16:04.126Z,10.98
2023-02-28T07:18:31.364Z,12.90
2023-02-28T07:20:58.162Z,12.88
2023-02-28T07:23:25.139Z,13.02
2023-02-28T07:25:53.092Z,12.97
2023-02-28T07:30:47.065Z,15.47
2023-02-28T07:33:13.871Z,13.82
2023-02-28T07:35:41.318Z,15.10
2023-02-28T07:38:08.713Z,14.68
2023-02-28T07:40:37.094Z,18.10
2023-02-28T07:43:04.745Z,17.88
2023-02-28T07:45:35.386Z,17.38
2023-02-28T07:48:02.857Z,17.70
2023-02-28T07:50:35.451Z,19.35
2023-02-28T07:53:02.316Z,21.42
2023-02-28T07:55:29.091Z,19.80
2023-02-28T07:57:57.389Z,17.70
2023-02-28T08:00:24.572Z,17.17
2023-02-28T08:02:55.003Z,18.15
2023-02-28T08:05:22.374Z,17.65
2023-02-28T08:07:50.742Z,15.60
2023-02-28T08:10:17.802Z,16.20
2023-02-28T08:12:44.623Z,15.30
2023-02-28T08:15:11.747Z,16.13
2023-02-28T08:17:38.556Z,13.93
2023-02-28T08:20:06.082Z,12.27
2023-02-28T08:22:32.894Z,9.35
2023-02-28T08:24:59.627Z,9.73
2023-02-28T08:27:26.409Z,11.82
2023-02-28T08:29:53.222Z,13.30
2023-02-28T08:32:29.393Z,10.70
2023-02-28T08:34:57.152Z,11.73
2023-02-28T08:37:24.269Z,9.50
2023-02-28T08:39:51.049Z,10.75
2023-02-28T08:42:17.885Z,10.30
2023-02-28T08:44:44.819Z,6.63
2023-02-28T08:47:11.939Z,5.82
2023-02-28T08:49:39.008Z,7.17
2023-02-28T08:52:05.865Z,6.47
2023-02-28T08:54:34.224Z,7.45
2023-02-28T08:57:01.333Z,6.70
2023-02-28T08:59:28.179Z,7.83
2023-02-28T09:01:54.956Z,6.78
2023-02-28T09:04:23.397Z,9.77
2023-02-28T09:06:51.684Z,6.05
2023-02-28T09:09:18.516Z,8.63
2023-02-28T09:11:45.330Z,6.63
2023-02-28T09:14:12.242Z,6.38
2023-02-28T09:16:39.170Z,7.55
2023-02-28T09:19:06.025Z,7.50
2023-02-28T09:21:32.927Z,5.80
2023-02-28T09:23:59.787Z,5.63
2023-02-28T09:26:34.846Z,4.72
2023-02-28T09:29:10.059Z,6.15
2023-02-28T09:31:36.845Z,6.10
2023-02-28T09:34:05.421Z,4.07
2023-02-28T09:36:43.718Z,7.97
2023-02-28T09:39:13.350Z,5.65
2023-02-28T09:41:51.943Z,5.45
2023-02-28T09:44:38.873Z,4.10
2023-02-28T09:47:30.415Z,6.18
2023-02-28T09:50:04.220Z,3.45
2023-02-28T09:52:35.506Z,3.78
2023-02-28T09:55:25.517Z,2.88
2023-02-28T09:57:53.643Z,2.47
2023-02-28T10:00:25.495Z,4.75
2023-02-28T10:03:01.254Z,5.22
2023-02-28T10:05:43.475Z,5.57
2023-02-28T10:08:13.949Z,2.92
2023-02-28T10:10:46.298Z,3.88
2023-02-28T10:13:16.177Z,2.78
2023-02-28T10:15:45.961Z,2.67
2023-02-28T10:18:17.605Z,2.88
2023-02-28T10:20:46.001Z,4.35
2023-02-28T10:23:27.698Z,3.05
2023-02-28T10:26:19.774Z,2.95
2023-02-28T10:28:47.103Z,2.67
2023-02-28T10:31:19.104Z,5.03
2023-02-28T10:33:46.610Z,4.07
2023-02-28T10:36:17.592Z,4.45
2023-02-28T10:38:46.814Z,3.80
2023-02-28T10:41:29.546Z,2.67
2023-02-28T10:44:15.950Z,2.70
2023-02-28T10:46:43.846Z,3.38
2023-02-28T10:49:23.461Z,4.47
2023-02-28T10:51:57.998Z,6.43
2023-02-28T10:54:36.617Z,3.83
2023-02-28T10:57:20.695Z,2.95
2023-02-28T10:59:52.925Z,4.35
2023-02-28T11:02:37.316Z,2.85
2023-02-28T11:05:37.292Z,3.90
2023-02-28T11:08:06.978Z,3.47
2023-02-28T11:10:37.107Z,2.50
2023-02-28T11:13:04.785Z,3.40
2023-02-28T11:15:34.730Z,3.03
2023-02-28T11:18:42.409Z,3.15
2023-02-28T11:21:16.812Z,3.92
2023-02-28T11:23:44.518Z,5.82
2023-02-28T11:26:12.148Z,3.00
2023-02-28T11:28:43.003Z,3.42
2023-02-28T11:31:12.627Z,2.95
2023-02-28T11:33:42.748Z,4.43
2023-02-28T11:36:25.739Z,2.53
2023-02-28T11:38:55.422Z,3.15
2023-02-28T11:41:25.183Z,3.70
2023-02-28T11:44:19.123Z,2.72
2023-02-28T11:46:52.604Z,4.05
2023-02-28T11:49:41.176Z,4.70
2023-02-28T11:52:23.806Z,2.28
2023-02-28T11:55:05.902Z,3.22
2023-02-28T11:57:58.933Z,4.50
2023-02-28T12:00:50.616Z,3.20
2023-02-28T12:03:45.781Z,3.92
2023-02-28T12:06:22.242Z,4.07
2023-02-28T12:09:01.076Z,2.92
2023-02-28T12:11:57.331Z,3.58
2023-02-28T12:15:05.107Z,4.07
2023-02-28T12:17:46.270Z,3.47
2023-02-28T12:20:37.999Z,4.72
2023-02-28T12:23:42.233Z,5.70
2023-02-28T12:26:24.575Z,3.13
2023-02-28T12:29:11.059Z,2.75
2023-02-28T12:31:42.868Z,2.78
2023-02-28T12:34:40.305Z,3.25
2023-02-28T12:37:17.436Z,2.88
2023-02-28T12:39:53.927Z,6.27
2023-02-28T12:42:29.646Z,4.20
2023-02-28T12:45:13.576Z,3.65
2023-02-28T12:47:43.827Z,4.63
2023-02-28T12:50:12.589Z,3.35
2023-02-28T12:52:42.552Z,3.45
2023-02-28T12:55:22.354Z,2.83
2023-02-28T12:57:49.092Z,3.65
2023-02-28T13:00:21.589Z,4.13
2023-02-28T13:02:57.033Z,3.95
2023-02-28T13:05:27.314Z,4.65
2023-02-28T13:08:13.079Z,3.30
2023-02-28T13:10:50.992Z,3.00
2023-02-28T13:16:08.114Z,3.75
2023-02-28T13:18:41.058Z,4.18
2023-02-28T13:21:10.966Z,3.72
2023-02-28T13:23:59.519Z,3.58
2023-02-28T13:26:38.501Z,3.63
2023-02-28T13:29:11.379Z,4.15
2023-02-28T13:32:11.963Z,4.55
2023-02-28T13:35:07.900Z,3.22
2023-02-28T13:37:43.639Z,3.63
2023-02-28T13:40:29.431Z,2.33
2023-02-28T13:42:56.718Z,4.63
2023-02-28T13:45:28.916Z,2.72
2023-02-28T13:48:03.894Z,2.88
2023-02-28T13:50:42.990Z,3.33
2023-02-28T13:53:41.092Z,2.53
2023-02-28T13:56:24.322Z,4.07
2023-02-28T13:58:56.370Z,3.75
2023-02-28T14:01:29.796Z,4.25
2023-02-28T14:04:25.831Z,4.32
2023-02-28T14:06:58.367Z,4.15
2023-02-28T14:09:45.908Z,4.82
2023-02-28T14:14:58.999Z,3.63
2023-02-28T14:17:26.943Z,3.22
2023-02-28T14:22:46.880Z,4.32
2023-02-28T14:25:44.976Z,3.00
2023-02-28T14:28:28.832Z,4.30
2023-02-28T14:31:10.861Z,4.40
2023-02-28T14:34:05.673Z,4.82
2023-02-28T14:36:41.782Z,3.47
2023-02-28T14:39:17.438Z,3.78
2023-02-28T14:41:45.372Z,3.85
2023-02-28T14:47:07.032Z,3.08
2023-02-28T14:49:39.479Z,3.17
2023-02-28T14:52:28.212Z,3.95
2023-02-28T14:55:17.860Z,3.72
2023-02-28T14:57:59.130Z,3.90
2023-02-28T15:00:31.605Z,3.28
2023-02-28T15:03:00.790Z,3.47
2023-02-28T15:05:33.354Z,4.50
2023-02-28T15:08:05.343Z,4.10
2023-02-28T15:10:32.850Z,6.13
2023-02-28T15:13:01.377Z,6.20
2023-02-28T15:16:03.143Z,4.10
2023-02-28T15:18:53.536Z,3.78
2023-02-28T15:21:27.002Z,3.25
2023-02-28T15:24:01.327Z,3.63
2023-02-28T15:26:40.114Z,5.30
2023-02-28T15:29:12.693Z,3.70
2023-02-28T15:31:57.345Z,3.42
2023-02-28T15:34:44.464Z,5.78
2023-02-28T15:37:33.491Z,4.57
2023-02-28T15:40:18.376Z,3.40
2023-02-28T15:42:59.876Z,4.68
2023-02-28T15:45:39.336Z,6.05
2023-02-28T15:48:37.890Z,8.05
2023-02-28T15:51:13.803Z,7.30
2023-02-28T15:53:55.399Z,10.43
2023-02-28T15:56:29.746Z,6.47
2023-02-28T15:58:58.720Z,6.85
2023-02-28T16:01:34.189Z,5.03
2023-02-28T16:04:04.452Z,5.32
2023-02-28T16:06:38.885Z,6.10
2023-02-28T16:09:09.389Z,6.88
2023-02-28T16:11:40.279Z,6.00
2023-02-28T16:14:07.179Z,10.77
2023-02-28T16:16:34.678Z,8.35
2023-02-28T16:19:01.636Z,6.88
2023-02-28T16:21:28.896Z,6.57
2023-02-28T16:23:55.893Z,5.17
2023-02-28T16:26:25.058Z,6.47
2023-02-28T16:28:53.174Z,6.40
2023-02-28T16:31:20.565Z,6.05
2023-02-28T16:33:48.149Z,11.80
2023-02-28T16:36:20.585Z,50.33
2023-02-28T16:38:47.681Z,58.90
2023-02-28T16:41:23.184Z,13.13
2023-02-28T16:43:53.587Z,6.65
2023-02-28T16:46:21.852Z,5.38
2023-02-28T16:51:19.581Z,5.72
2023-02-28T16:53:46.951Z,6.53
2023-02-28T16:56:20.110Z,5.53
2023-02-28T16:58:49.120Z,6.25
2023-02-28T17:01:17.155Z,9.10
2023-02-28T17:06:25.819Z,8.55
2023-02-28T17:08:52.881Z,6.45
2023-02-28T17:11:20.416Z,12.10
2023-02-28T17:13:50.161Z,10.63
2023-02-28T17:16:36.435Z,9.23
2023-02-28T17:19:08.190Z,10.90
2023-02-28T17:21:35.264Z,7.00
2023-02-28T17:24:02.214Z,5.50
2023-02-28T17:26:29.618Z,5.65
2023-02-28T17:28:58.427Z,6.10
2023-02-28T17:31:26.537Z,6.30
2023-02-28T17:33:55.311Z,6.90
2023-02-28T17:36:28.203Z,4.82
2023-02-28T17:38:59.503Z,6.32
2023-02-28T17:41:27.439Z,5.18
2023-02-28T17:43:54.232Z,5.90
2023-02-28T17:46:25.841Z,4.82
2023-02-28T17:48:54.360Z,6.95
2023-02-28T17:51:23.503Z,5.10
2023-02-28T17:53:50.305Z,3.85
2023-02-28T17:56:20.348Z,3.83
2023-02-28T17:58:47.577Z,6.38
2023-02-28T18:01:15.068Z,6.67
2023-02-28T18:03:42.039Z,6.47
2023-02-28T18:06:21.025Z,5.60
2023-02-28T18:08:50.370Z,5.20
2023-02-28T18:11:19.795Z,13.25
2023-02-28T18:13:49.193Z,36.08
2023-02-28T18:16:17.437Z,11.63
2023-02-28T18:18:44.552Z,6.97
2023-02-28T18:21:14.933Z,5.40
2023-02-28T18:23:47.795Z,4.85
2023-02-28T18:26:16.362Z,4.60
2023-02-28T18:28:44.655Z,7.97
2023-02-28T18:31:20.531Z,5.53
2023-02-28T18:33:52.648Z,5.00
2023-02-28T18:36:21.371Z,7.10
2023-02-28T18:38:51.785Z,6.65
2023-02-28T18:41:21.667Z,7.80
2023-02-28T18:43:52.106Z,4.75
2023-02-28T18:46:20.716Z,5.53
2023-02-28T18:48:48.058Z,4.68
2023-02-28T18:51:16.285Z,6.80
2023-02-28T18:56:13.795Z,4.57
2023-02-28T18:58:43.982Z,7.65
2023-02-28T19:01:19.818Z,6.95
2023-02-28T19:03:56.580Z,5.88
2023-02-28T19:06:24.033Z,4.70
2023-02-28T19:08:59.500Z,6.60
2023-02-28T19:11:28.834Z,5.53
2023-02-28T19:13:56.866Z,8.43
2023-02-28T19:16:24.668Z,5.45
2023-02-28T19:18:51.947Z,8.18
2023-02-28T19:21:21.239Z,4.57
2023-02-28T19:23:48.780Z,5.22
2023-02-28T19:26:19.825Z,5.88
2023-02-28T19:28:46.875Z,4.45
2023-02-28T19:31:22.717Z,4.75
2023-02-28T19:33:55.223Z,6.82
2023-02-28T19:36:23.127Z,5.53
2023-02-28T19:38:50.688Z,5.45
2023-02-28T19:41:18.290Z,7.07
2023-02-28T19:43:45.421Z,5.72
2023-02-28T19:46:12.633Z,6.80
2023-02-28T19:48:40.127Z,6.90
2023-02-28T19:51:09.869Z,7.40
2023-02-28T19:53:39.666Z,5.60
2023-02-28T19:56:08.392Z,6.70
2023-02-28T19:58:36.368Z,6.78
2023-02-28T20:03:34.016Z,5.10
2023-02-28T20:06:03.917Z,5.97
2023-02-28T20:08:31.024Z,5.10
2023-02-28T20:11:03.871Z,5.63
2023-02-28T20:13:30.790Z,8.77
2023-02-28T20:16:02.804Z,9.05
2023-02-28T20:18:29.895Z,7.45
2023-02-28T20:20:57.267Z,7.13
2023-02-28T20:23:24.798Z,6.60
2023-02-28T20:25:51.955Z,6.63
2023-02-28T20:28:19.805Z,5.20
2023-02-28T20:30:49.561Z,6.05
2023-02-28T20:33:17.905Z,6.00
2023-02-28T20:35:45.403Z,8.75
2023-02-28T20:38:18.235Z,7.72
2023-02-28T20:40:45.043Z,9.63
2023-02-28T20:43:11.921Z,6.50
2023-02-28T20:45:40.189Z,7.38
2023-02-28T20:48:07.368Z,8.18
2023-02-28T20:50:34.162Z,6.43
2023-02-28T20:53:01.035Z,9.75
2023-02-28T20:55:27.999Z,10.93
2023-02-28T20:57:55.043Z,9.73
2023-02-28T21:00:22.597Z,9.43
2023-02-28T21:02:49.739Z,8.20
2023-02-28T21:05:17.744Z,8.33
2023-02-28T21:10:12.019Z,18.20
2023-02-28T21:12:38.892Z,11.80
2023-02-28T21:15:06.141Z,12.98
2023-02-28T21:17:33.104Z,8.27
2023-02-28T21:19:59.907Z,8.55
2023-02-28T21:22:26.744Z,9.90
2023-02-28T21:24:53.609Z,9.55
2023-02-28T21:27:20.477Z,8.75
2023-02-28T21:29:47.352Z,8.45
2023-02-28T21:32:14.806Z,9.98
2023-02-28T21:34:41.640Z,9.60
2023-02-28T21:37:08.705Z,9.15
2023-02-28T21:39:35.778Z,10.97
2023-02-28T21:42:03.926Z,10.38
2023-02-28T21:44:32.415Z,9.63
2023-02-28T21:47:02.406Z,8.73
2023-02-28T21:49:29.905Z,8.63
2023-02-28T21:51:57.137Z,10.38
2023-02-28T21:54:24.248Z,7.85
2023-02-28T21:56:51.613Z,9.15
2023-02-28T21:59:19.614Z,8.73
2023-02-28T22:01:48.575Z,8.07
2023-02-28T22:04:22.907Z,9.77
2023-02-28T22:06:58.573Z,12.10
2023-02-28T22:09:28.292Z,9.35
2023-02-28T22:11:56.246Z,7.78
2023-02-28T22:16:52.904Z,10.82
2023-02-28T22:19:21.940Z,8.75
2023-02-28T22:21:50.095Z,8.93
2023-02-28T22:24:23.980Z,8.40
2023-02-28T22:26:51.607Z,10.65
2023-02-28T22:29:18.655Z,8.60
2023-02-28T22:31:45.799Z,9.38
2023-02-28T22:34:13.329Z,9.77
2023-02-28T22:36:42.080Z,10.05
2023-02-28T22:39:09.981Z,10.48
2023-02-28T22:44:07.361Z,9.60
2023-02-28T22:46:35.597Z,10.05
2023-02-28T22:49:03.894Z,10.93
2023-02-28T22:51:31.021Z,10.27
2023-02-28T22:53:58.559Z,9.55
2023-02-28T22:56:29.943Z,9.48
2023-02-28T22:58:59.251Z,13.40
2023-02-28T23:01:28.822Z,8.93
2023-02-28T23:03:56.212Z,12.60
2023-02-28T23:06:26.480Z,10.82
2023-02-28T23:08:56.359Z,11.90
2023-02-28T23:11:29.741Z,9.82
2023-02-28T23:14:00.141Z,10.10
2023-02-28T23:16:35.759Z,10.52
2023-02-28T23:19:05.781Z,11.48
2023-02-28T23:21:33.533Z,10.05
2023-02-28T23:24:05.145Z,12.93
2023-02-28T23:26:32.959Z,11.05
2023-02-28T23:31:26.888Z,11.00
2023-02-28T23:33:55.365Z,11.00
2023-02-28T23:36:22.515Z,9.05
2023-02-28T23:38:51.217Z,14.40
2023-02-28T23:41:19.924Z,11.40
2023-02-28T23:43:46.781Z,10.73
2023-02-28T23:46:14.509Z,12.32
2023-02-28T23:48:42.164Z,11.00
2023-02-28T23:51:16.688Z,11.93
2023-02-28T23:53:46.590Z,9.38
2023-02-28T23:56:16.108Z,11.57
2023-02-28T23:58:44.084Z,9.77
